Time;durP1;ratioP1;P1;durP2;ratioP2;P2;SDS_P1;SDS_P2;PMS_P1;PMS_P2;Temp;Humidity;BMP_temperature;BMP_pressure;BME280_temperature;BME280_humidity;BME280_pressure;Samples;Min_cycle;Max_cycle;Signal;HPM_P1;HPM_P2
2021/09/02 00:01:10;;;;;;;;;0.00;0.00;;;;;25.32;40.81;101717.81;5036486;28;45730;-69
2021/09/02 00:03:35;;;;;;;;;0.00;0.00;;;;;25.32;41.21;101725.09;5055542;28;45516;-69
2021/09/02 00:06:01;;;;;;;;;0.00;0.00;;;;;25.33;40.81;101726.88;5054993;28;45120;-69
2021/09/02 00:08:26;;;;;;;;;0.00;0.00;;;;;25.32;41.10;101727.81;5054674;28;45504;-69
2021/09/02 00:10:51;;;;;;;;;0.00;0.00;;;;;25.32;40.81;101731.41;5054668;28;45427;-69
2021/09/02 00:13:17;;;;;;;;;0.00;0.00;;;;;25.32;40.97;101727.81;5054432;28;45398;-69
2021/09/02 00:15:42;;;;;;;;;0.00;0.00;;;;;25.33;40.58;101730.50;5050868;28;46112;-69
2021/09/02 00:18:08;;;;;;;;;0.00;0.00;;;;;25.30;41.09;101722.41;5054182;28;45558;-69
2021/09/02 00:20:33;;;;;;;;;0.00;0.00;;;;;25.32;40.95;101720.53;5054102;28;45485;-69
2021/09/02 00:22:59;;;;;;;;;0.00;0.00;;;;;25.30;40.81;101716.97;5054302;28;45567;-69
2021/09/02 00:25:24;;;;;;;;;0.00;0.00;;;;;25.31;40.89;101715.16;5054296;28;45818;-69
2021/09/02 00:27:50;;;;;;;;;0.00;0.00;;;;;25.29;41.29;101715.19;5053762;28;44852;-69
2021/09/02 00:30:16;;;;;;;;;0.00;0.00;;;;;25.28;40.84;101707.94;5054674;28;45738;-69
2021/09/02 00:32:42;;;;;;;;;0.00;0.00;;;;;25.25;41.09;101697.16;5035861;28;45372;-69
2021/09/02 00:35:07;;;;;;;;;0.00;0.00;;;;;25.26;41.17;101700.78;5035931;28;45426;-69
2021/09/02 00:37:33;;;;;;;;;0.00;0.00;;;;;25.26;41.12;101696.22;5053953;28;45652;-69
2021/09/02 00:39:58;;;;;;;;;0.67;0.67;;;;;25.27;41.17;101695.28;5053785;28;45485;-69
2021/09/02 00:42:24;;;;;;;;;0.00;0.00;;;;;25.24;40.67;101695.38;5052919;28;45600;-70
2021/09/02 00:44:49;;;;;;;;;0.00;0.00;;;;;25.25;41.11;101694.44;5053958;28;46560;-69
2021/09/02 00:47:16;;;;;;;;;0.00;0.00;;;;;25.26;40.80;101693.50;5053880;28;45654;-69
2021/09/02 00:49:43;;;;;;;;;0.00;0.00;;;;;25.22;40.91;101686.38;5054093;28;45488;-69
2021/09/02 00:52:19;;;;;;;;;0.00;0.00;;;;;25.26;40.86;101687.16;5054160;28;45513;-69
2021/09/02 00:54:50;;;;;;;;;0.00;0.00;;;;;25.24;40.84;101687.22;5035843;28;46809;-69
2021/09/02 00:57:22;;;;;;;;;0.00;0.00;;;;;25.24;40.82;101687.22;5035414;28;47023;-69
2021/09/02 00:59:50;;;;;;;;;0.00;0.00;;;;;25.21;40.69;101684.59;5053918;28;45681;-69
2021/09/02 01:02:15;;;;;;;;;0.33;0.33;;;;;25.23;40.79;101688.16;5054207;28;45447;-71
2021/09/02 01:04:41;;;;;;;;;1.33;0.00;;;;;25.22;40.90;101683.63;5053790;28;45766;-70
2021/09/02 01:07:06;;;;;;;;;0.67;0.67;;;;;25.20;40.85;101692.78;5053970;28;45482;-70
2021/09/02 01:09:40;;;;;;;;;0.00;0.00;;;;;25.20;40.92;101693.66;5036011;28;45584;-71
2021/09/02 01:12:32;;;;;;;;;0.00;0.00;;;;;25.21;40.92;101706.38;5053829;28;45493;-71
2021/09/02 01:15:06;;;;;;;;;0.00;0.00;;;;;25.20;41.16;101699.09;5053527;28;46152;-71
2021/09/02 01:17:32;;;;;;;;;0.00;0.00;;;;;25.18;40.71;101700.09;5053576;28;45464;-72
2021/09/02 01:19:58;;;;;;;;;0.00;0.00;;;;;25.20;40.98;101701.81;5053703;28;45455;-71
2021/09/02 01:22:28;;;;;;;;;0.00;0.00;;;;;25.21;40.88;101699.97;5053823;28;45759;-71
2021/09/02 01:24:55;;;;;;;;;0.00;0.00;;;;;25.20;41.13;101698.22;5053373;28;45071;-71
2021/09/02 01:27:27;;;;;;;;;0.00;0.00;;;;;25.20;40.85;101682.75;5053376;28;45417;-71
2021/09/02 01:29:55;;;;;;;;;0.00;0.00;;;;;25.17;40.94;101677.44;5053515;28;45472;-71
2021/09/02 01:32:22;;;;;;;;;0.00;0.00;;;;;25.20;41.07;101674.59;5053244;28;45505;-71
2021/09/02 01:34:48;;;;;;;;;0.33;0.33;;;;;25.19;40.96;101677.38;5051810;28;47180;-71
2021/09/02 01:37:13;;;;;;;;;0.00;0.00;;;;;25.18;40.95;101672.88;5035574;28;46013;-71
2021/09/02 01:39:40;;;;;;;;;0.00;0.00;;;;;25.18;40.89;101673.75;5055408;28;45695;-71
2021/09/02 01:42:11;;;;;;;;;0.00;0.00;;;;;25.17;40.86;101677.44;5055893;28;45499;-72
2021/09/02 01:44:36;;;;;;;;;0.00;0.00;;;;;25.12;40.77;101663.94;5056481;28;45420;-71
2021/09/02 01:47:02;;;;;;;;;1.00;0.00;;;;;25.17;40.65;101669.28;5056731;28;45386;-72
2021/09/02 01:49:27;;;;;;;;;0.00;0.00;;;;;25.15;40.79;101668.44;5056742;28;45443;-71
2021/09/02 01:51:52;;;;;;;;;0.00;0.00;;;;;25.17;40.86;101677.44;5038216;28;45453;-71
2021/09/02 01:54:18;;;;;;;;;0.00;0.00;;;;;25.15;40.77;101665.72;5056064;28;46201;-72
2021/09/02 01:56:50;;;;;;;;;0.00;0.00;;;;;25.13;40.93;101670.31;5056276;28;45477;-71
2021/09/02 01:59:15;;;;;;;;;0.00;0.00;;;;;25.14;40.85;101672.06;5056469;28;45571;-71
2021/09/02 02:01:40;;;;;;;;;0.00;0.00;;;;;25.12;40.74;101663.94;5038515;28;45518;-71
2021/09/02 02:04:07;;;;;;;;;0.00;0.00;;;;;25.11;40.70;101670.34;5056190;28;46574;-71
2021/09/02 02:06:32;;;;;;;;;0.67;0.33;;;;;25.11;40.97;101666.75;5056092;28;45402;-71
2021/09/02 02:08:57;;;;;;;;;0.00;0.00;;;;;25.12;40.88;101674.84;5056452;28;45877;-71
2021/09/02 02:11:23;;;;;;;;;0.00;0.00;;;;;25.11;40.86;101659.47;5056696;28;45414;-71
2021/09/02 02:13:48;;;;;;;;;0.00;0.00;;;;;25.11;41.12;101664.03;5056025;28;45393;-71
2021/09/02 02:16:15;;;;;;;;;0.00;0.00;;;;;25.11;40.93;101664.03;5038083;28;45434;-71
2021/09/02 02:18:40;;;;;;;;;0.00;0.00;;;;;25.09;40.73;101657.75;5056524;28;45888;-72
2021/09/02 02:21:05;;;;;;;;;0.00;0.00;;;;;25.04;40.90;101641.53;5038327;28;44865;-71
2021/09/02 02:23:31;;;;;;;;;0.33;0.33;;;;;25.10;40.77;101643.16;5056385;28;45421;-71
2021/09/02 02:25:56;;;;;;;;;0.00;0.00;;;;;25.09;40.87;101645.00;5053018;28;45498;-71
2021/09/02 02:28:22;;;;;;;;;0.00;0.00;;;;;25.09;40.67;101635.97;5056599;28;45570;-71
2021/09/02 02:30:47;;;;;;;;;0.33;0.33;;;;;25.07;40.86;101637.84;5056075;28;45479;-71
2021/09/02 02:33:12;;;;;;;;;0.00;0.00;;;;;25.05;41.06;101631.56;5056105;28;45558;-71
2021/09/02 02:35:38;;;;;;;;;0.00;0.00;;;;;25.05;40.88;101639.72;5056005;28;45500;-71
2021/09/02 02:38:03;;;;;;;;;0.00;0.00;;;;;25.05;40.89;101637.00;5056468;28;45520;-72
2021/09/02 02:40:28;;;;;;;;;0.00;0.00;;;;;25.04;40.89;101636.09;5038092;28;45457;-71
2021/09/02 02:42:54;;;;;;;;;0.00;0.00;;;;;24.97;40.94;101614.59;5034860;28;46870;-71
2021/09/02 02:45:19;;;;;;;;;0.00;0.00;;;;;25.03;41.03;101630.72;5036035;28;45915;-72
2021/09/02 02:47:45;;;;;;;;;0.00;0.00;;;;;25.03;40.63;101625.28;5035704;28;45439;-71
2021/09/02 02:50:10;;;;;;;;;0.00;0.00;;;;;25.02;40.98;101621.63;5035547;28;45455;-72
2021/09/02 02:52:36;;;;;;;;;0.00;0.00;;;;;25.01;40.89;101628.03;5034298;28;46488;-71
2021/09/02 02:55:01;;;;;;;;;0.00;0.00;;;;;25.00;40.96;101619.91;5034187;28;44818;-72
2021/09/02 02:57:27;;;;;;;;;0.00;0.00;;;;;25.03;40.61;101630.72;5035469;28;45400;-71
2021/09/02 02:59:52;;;;;;;;;0.00;0.00;;;;;25.02;40.76;101626.19;5017898;28;44921;-71
2021/09/02 03:02:17;;;;;;;;;0.00;0.00;;;;;25.00;40.93;101619.91;5035488;28;46176;-71
2021/09/02 03:04:43;;;;;;;;;0.00;0.00;;;;;25.01;41.03;101613.56;5035698;28;45450;-72
2021/09/02 03:07:08;;;;;;;;;0.00;0.00;;;;;25.02;40.84;101615.31;5035562;28;45650;-72
2021/09/02 03:09:33;;;;;;;;;0.00;0.00;;;;;25.01;41.10;101606.25;5034596;28;45498;-71
2021/09/02 03:11:59;;;;;;;;;0.00;0.00;;;;;24.99;41.42;101624.47;5035375;28;46136;-71
2021/09/02 03:14:24;;;;;;;;;0.00;0.00;;;;;24.97;40.73;101620.03;5035208;28;45415;-71
2021/09/02 03:16:50;;;;;;;;;0.00;0.00;;;;;24.99;40.92;101624.47;5035329;28;45413;-71
2021/09/02 03:19:15;;;;;;;;;0.33;0.33;;;;;24.98;40.84;101621.78;5035606;28;45385;-71
2021/09/02 03:21:40;;;;;;;;;0.33;0.33;;;;;24.97;40.85;101626.34;5035177;28;45933;-71
2021/09/02 03:24:06;;;;;;;;;0.00;0.00;;;;;24.98;40.93;101627.25;5035229;28;45458;-71
2021/09/02 03:26:31;;;;;;;;;0.00;0.00;;;;;24.98;40.88;101624.50;5035042;28;45441;-72
2021/09/02 03:28:56;;;;;;;;;1.00;0.00;;;;;24.95;41.13;101623.69;5033425;28;45514;-70
2021/09/02 03:31:22;;;;;;;;;0.00;0.00;;;;;24.93;41.14;101611.94;5035211;28;45407;-71
2021/09/02 03:33:47;;;;;;;;;0.33;0.33;;;;;24.95;41.13;101607.34;5034308;28;45532;-71
2021/09/02 03:36:13;;;;;;;;;0.00;0.00;;;;;24.95;40.83;101612.78;5034896;28;45461;-71
2021/09/02 03:38:38;;;;;;;;;1.00;0.00;;;;;24.92;41.07;101599.25;5034919;28;45450;-72
2021/09/02 03:41:04;;;;;;;;;0.00;0.00;;;;;24.93;41.13;101601.06;5033284;28;45952;-72
2021/09/02 03:43:29;;;;;;;;;0.00;0.00;;;;;24.93;41.23;101595.63;5045266;28;45787;-72
2021/09/02 03:45:54;;;;;;;;;0.67;0.67;;;;;24.93;41.08;101595.63;5036458;28;45842;-72
2021/09/02 03:48:20;;;;;;;;;0.00;0.00;;;;;24.93;40.77;101584.75;5036510;28;45464;-71
2021/09/02 03:50:45;;;;;;;;;0.00;0.00;;;;;24.91;40.87;101577.56;5054692;28;45504;-71
2021/09/02 03:53:10;;;;;;;;;0.00;0.00;;;;;24.91;40.67;101589.34;5036517;28;45454;-71
2021/09/02 03:55:36;;;;;;;;;0.00;0.00;;;;;24.89;41.12;101583.06;5054592;28;45401;-72
2021/09/02 03:58:01;;;;;;;;;0.00;0.00;;;;;24.90;40.82;101582.09;5054999;28;45397;-71
2021/09/02 04:00:26;;;;;;;;;0.33;0.33;;;;;24.88;40.82;101583.09;5036414;28;47143;-71
2021/09/02 04:02:52;;;;;;;;;0.00;0.00;;;;;24.87;40.70;101579.50;5053506;28;45447;-72
2021/09/02 04:05:17;;;;;;;;;0.00;0.00;;;;;24.86;40.84;101585.84;5054638;28;45398;-71
2021/09/02 04:07:43;;;;;;;;;1.67;0.67;;;;;24.89;40.70;101590.34;5054968;28;45353;-71
2021/09/02 04:10:09;;;;;;;;;0.00;0.00;;;;;24.87;41.04;101589.50;5054222;28;45424;-71
2021/09/02 04:12:34;;;;;;;;;0.00;0.00;;;;;24.88;40.80;101597.59;5054451;28;45663;-71
2021/09/02 04:15:00;;;;;;;;;0.00;0.00;;;;;24.87;40.63;101609.44;5054662;28;45791;-71
2021/09/02 04:17:25;;;;;;;;;0.00;0.00;;;;;24.86;40.86;101615.78;5054561;28;45456;-71
2021/09/02 04:19:50;;;;;;;;;0.00;0.00;;;;;24.85;41.19;101610.41;5036186;28;45971;-71
2021/09/02 04:22:16;;;;;;;;;0.00;0.00;;;;;24.88;40.88;101611.19;5050799;28;45404;-71
2021/09/02 04:24:41;;;;;;;;;0.00;0.00;;;;;24.88;40.88;101613.03;5054524;28;45530;-72
2021/09/02 04:27:08;;;;;;;;;0.67;0.67;;;;;24.86;40.79;101602.19;5054523;28;45480;-71
2021/09/02 04:29:33;;;;;;;;;0.00;0.00;;;;;24.85;40.79;101608.59;5054285;28;45464;-71
2021/09/02 04:32:00;;;;;;;;;0.33;0.33;;;;;24.86;40.70;101602.19;5035776;28;44935;-71
2021/09/02 04:34:25;;;;;;;;;0.67;0.67;;;;;24.85;40.84;101594.09;5053965;28;45398;-71
2021/09/02 04:36:50;;;;;;;;;0.00;0.00;;;;;24.84;40.62;101593.19;5054564;28;45367;-71
2021/09/02 04:39:16;;;;;;;;;0.33;0.33;;;;;24.81;40.73;101579.69;5054101;28;46150;-71
2021/09/02 04:41:41;;;;;;;;;0.00;0.00;;;;;24.83;40.86;101591.41;5035778;28;45474;-71
2021/09/02 04:44:06;;;;;;;;;1.00;0.00;;;;;24.85;40.88;101599.53;5032487;28;45439;-71
2021/09/02 04:46:32;;;;;;;;;0.00;0.00;;;;;24.82;40.76;101600.50;5034333;28;45421;-71
2021/09/02 04:48:57;;;;;;;;;0.00;0.00;;;;;24.82;40.78;101600.50;5033700;28;45568;-72
2021/09/02 04:51:23;;;;;;;;;0.67;0.67;;;;;24.80;40.78;101602.38;5033923;28;45282;-72
2021/09/02 04:53:48;;;;;;;;;0.00;0.00;;;;;24.81;40.42;101601.47;5034097;28;45426;-72
2021/09/02 04:56:13;;;;;;;;;0.00;0.00;;;;;24.81;41.16;101598.75;5034676;28;45378;-71
2021/09/02 04:58:39;;;;;;;;;1.00;1.00;;;;;24.81;40.78;101598.75;5034425;28;45366;-72
2021/09/02 05:01:05;;;;;;;;;0.00;0.00;;;;;24.79;41.04;101599.72;5034307;28;45506;-72
2021/09/02 05:03:31;;;;;;;;;2.00;0.00;;;;;24.80;41.10;101605.09;5033837;28;45644;-72
2021/09/02 05:05:57;;;;;;;;;0.00;0.00;;;;;24.79;41.10;101606.06;5034479;28;45465;-71
2021/09/02 05:08:22;;;;;;;;;0.00;0.00;;;;;24.80;40.89;101612.38;5032410;28;46781;-72
2021/09/02 05:10:49;;;;;;;;;1.00;0.00;;;;;24.78;40.92;101601.53;5033659;28;45534;-71
2021/09/02 05:13:14;;;;;;;;;1.33;1.33;;;;;24.77;40.86;101597.06;5034005;28;45824;-72
2021/09/02 05:15:40;;;;;;;;;1.33;1.33;;;;;24.75;40.58;101593.50;5037058;28;45531;-72
2021/09/02 05:18:05;;;;;;;;;0.33;0.33;;;;;24.75;40.82;101586.22;5037098;28;45517;-72
2021/09/02 05:20:31;;;;;;;;;0.00;0.00;;;;;24.75;41.06;101590.78;5037281;28;45679;-72
2021/09/02 05:22:58;;;;;;;;;0.67;0.00;;;;;24.76;40.82;101595.25;5037822;28;45457;-73
2021/09/02 05:25:24;;;;;;;;;0.00;0.00;;;;;24.75;41.09;101598.94;5037096;28;44859;-71
2021/09/02 05:27:49;;;;;;;;;0.00;0.00;;;;;24.75;40.98;101593.50;5037288;28;45441;-72
2021/09/02 05:30:15;;;;;;;;;1.00;1.00;;;;;24.74;40.66;101591.69;5037451;28;45519;-72
2021/09/02 05:32:41;;;;;;;;;0.00;0.00;;;;;24.74;40.91;101605.28;5036776;28;45506;-72
2021/09/02 05:35:07;;;;;;;;;0.00;0.00;;;;;24.73;40.89;101596.25;5037404;28;45465;-71
2021/09/02 05:37:33;;;;;;;;;1.00;1.00;;;;;24.75;41.02;101588.94;5035740;28;47445;-72
2021/09/02 05:39:58;;;;;;;;;0.00;0.00;;;;;24.74;40.71;101578.09;5036667;28;45355;-72
2021/09/02 05:42:24;;;;;;;;;0.00;0.00;;;;;24.73;40.75;101587.22;5036745;28;45815;-71
2021/09/02 05:44:49;;;;;;;;;1.33;1.33;;;;;24.75;41.19;101582.63;5018894;28;45531;-71
2021/09/02 05:47:15;;;;;;;;;0.00;0.00;;;;;24.73;40.80;101579.03;5036524;28;46138;-71
2021/09/02 05:49:40;;;;;;;;;1.33;1.33;;;;;24.74;41.06;101594.41;5036402;28;45580;-71
2021/09/02 05:52:06;;;;;;;;;1.00;1.00;;;;;24.73;40.82;101590.81;5035249;28;45452;-71
2021/09/02 05:54:31;;;;;;;;;1.00;0.33;;;;;24.73;40.84;101600.81;5035292;28;45354;-71
2021/09/02 05:56:57;;;;;;;;;0.67;0.67;;;;;24.72;40.87;101604.44;5036235;28;45674;-72
2021/09/02 05:59:22;;;;;;;;;1.33;0.00;;;;;24.71;41.02;101589.09;5036287;28;45450;-72
2021/09/02 06:01:47;;;;;;;;;1.00;1.00;;;;;24.72;41.25;101591.75;5036205;28;45421;-71
2021/09/02 06:04:13;;;;;;;;;0.33;0.33;;;;;24.74;40.81;101602.56;5034986;28;45342;-72
2021/09/02 06:06:38;;;;;;;;;0.33;0.33;;;;;24.73;40.85;101595.38;5034511;28;48017;-73
2021/09/02 06:09:04;;;;;;;;;3.00;1.33;;;;;24.76;40.69;101595.25;5035102;28;45421;-72
2021/09/02 06:11:29;;;;;;;;;0.00;0.00;;;;;24.77;41.05;101601.63;5036190;28;45397;-72
2021/09/02 06:13:55;;;;;;;;;0.67;0.67;;;;;24.78;40.76;101598.81;5034836;28;45794;-72
2021/09/02 06:16:21;;;;;;;;;0.00;0.00;;;;;24.80;40.86;101610.53;5033792;28;45529;-72
2021/09/02 06:18:48;;;;;;;;;4.00;4.00;;;;;24.82;41.17;101608.66;5033812;28;45493;-63
2021/09/02 06:21:13;;;;;;;;;6.67;5.00;;;;;24.75;40.39;101605.25;5035594;28;45491;-63
2021/09/02 06:23:39;;;;;;;;;5.67;5.33;;;;;24.70;40.33;101607.25;5033559;28;45613;-63
2021/09/02 06:26:04;;;;;;;;;30.00;28.33;;;;;24.66;39.66;101607.38;5033556;28;46188;-63
2021/09/02 06:28:29;;;;;;;;;22.67;19.00;;;;;24.50;39.91;101602.41;5035886;28;45793;-64
2021/09/02 06:30:55;;;;;;;;;20.33;17.67;;;;;24.39;39.86;101607.25;5035569;28;45956;-64
2021/09/02 06:33:20;;;;;;;;;19.00;19.00;;;;;24.23;39.83;101605.91;5035561;28;45531;-64
2021/09/02 06:35:46;;;;;;;;;24.00;21.00;;;;;24.14;39.85;101617.94;5035754;28;46400;-64
2021/09/02 06:38:12;;;;;;;;;24.33;24.33;;;;;24.02;40.02;101612.88;5035392;28;45459;-65
2021/09/02 06:40:37;;;;;;;;;22.67;19.00;;;;;23.93;40.18;101616.72;5035181;28;45889;-64
2021/09/02 06:43:03;;;;;;;;;22.00;21.33;;;;;23.87;39.90;101616.88;5033639;28;45478;-62
2021/09/02 06:45:28;;;;;;;;;23.33;22.67;;;;;23.83;39.91;101617.91;5035632;28;46451;-64
2021/09/02 06:47:55;;;;;;;;;28.00;24.33;;;;;23.80;40.38;101613.44;5035165;28;45799;-64
2021/09/02 06:50:21;;;;;;;;;18.67;18.67;;;;;23.73;40.45;101612.69;5034793;28;45437;-64
2021/09/02 06:52:47;;;;;;;;;32.67;30.67;;;;;23.67;40.06;101623.72;5035180;28;45482;-63
2021/09/02 06:55:12;;;;;;;;;26.00;23.00;;;;;23.59;40.64;101625.72;5034817;28;45813;-62
2021/09/02 06:57:38;;;;;;;;;22.33;19.00;;;;;23.50;40.39;101615.13;5034841;28;45454;-63
2021/09/02 07:00:13;;;;;;;;;20.00;18.00;;;;;23.47;40.53;101617.91;5035026;28;45503;-65
2021/09/02 07:02:38;;;;;;;;;21.33;20.00;;;;;23.41;40.72;101615.34;5035004;28;45452;-64
2021/09/02 07:05:05;;;;;;;;;26.00;23.67;;;;;23.35;40.84;101614.59;5033755;28;45919;-64
2021/09/02 07:07:31;;;;;;;;;29.33;28.67;;;;;23.27;40.52;101621.09;5025753;28;45501;-64
2021/09/02 07:10:04;;;;;;;;;28.00;25.67;;;;;23.22;41.00;101618.50;5021740;28;45452;-64
2021/09/02 07:12:31;;;;;;;;;25.33;23.67;;;;;23.10;41.10;101621.53;5034742;28;45567;-64
2021/09/02 07:14:57;;;;;;;;;28.33;24.67;;;;;22.96;41.62;101620.00;5019564;28;48683;-63
2021/09/02 07:17:22;;;;;;;;;20.00;19.33;;;;;22.84;41.28;101620.28;5014527;28;45362;-63
2021/09/02 07:19:48;;;;;;;;;22.33;21.67;;;;;22.85;41.58;101621.19;5013452;28;45493;-63
2021/09/02 07:22:13;;;;;;;;;25.00;25.00;;;;;22.85;42.13;101621.19;5017565;28;45413;-64
2021/09/02 07:24:38;;;;;;;;;19.00;18.33;;;;;22.90;41.87;101620.13;5027470;28;45233;-63
2021/09/02 07:27:04;;;;;;;;;20.33;20.33;;;;;22.93;41.94;101630.94;5034039;28;45756;-64
2021/09/02 07:29:31;;;;;;;;;26.67;24.33;;;;;22.96;41.84;101638.09;5034737;28;45437;-63
2021/09/02 07:31:56;;;;;;;;;22.67;22.67;;;;;22.82;41.62;101638.41;5034555;28;45553;-63
2021/09/02 07:34:29;;;;;;;;;16.67;15.67;;;;;22.76;42.14;101635.84;5033880;28;45840;-64
2021/09/02 07:36:57;;;;;;;;;17.33;16.33;;;;;22.77;41.93;101629.50;5033375;28;45561;-64
2021/09/02 07:39:23;;;;;;;;;20.00;18.00;;;;;22.83;41.84;101639.31;5034321;28;45452;-64
2021/09/02 07:41:48;;;;;;;;;18.67;18.33;;;;;22.84;41.87;101638.38;5034335;28;45449;-64
2021/09/02 07:44:20;;;;;;;;;19.33;17.33;;;;;22.82;42.33;101638.41;5046588;28;45516;-64
2021/09/02 07:46:52;;;;;;;;;25.33;24.00;;;;;22.88;41.86;101632.84;5053907;28;45542;-64
2021/09/02 07:49:17;;;;;;;;;23.67;20.33;;;;;22.91;42.13;101627.38;5053831;28;45643;-65
2021/09/02 07:51:43;;;;;;;;;25.00;24.33;;;;;22.88;41.93;101627.41;5054459;28;45385;-66
2021/09/02 07:54:08;;;;;;;;;33.33;29.33;;;;;22.84;42.29;101614.84;5053939;28;45338;-65
2021/09/02 07:56:34;;;;;;;;;26.67;26.00;;;;;22.68;41.80;101610.72;5035860;28;45491;-64
2021/09/02 08:02:21;;;;;;;;;26.00;21.33;;;;;22.39;42.77;101614.06;5053796;28;45396;-64
2021/09/02 08:04:46;;;;;;;;;31.00;27.00;;;;;22.46;42.90;101615.72;5053689;28;45307;-65
2021/09/02 08:07:11;;;;;;;;;23.67;23.00;;;;;22.43;43.04;101618.50;5053802;28;45413;-65
2021/09/02 08:09:37;;;;;;;;;35.33;32.00;;;;;22.34;42.99;101615.06;5054090;28;45422;-65
2021/09/02 08:12:04;;;;;;;;;32.00;29.00;;;;;22.29;42.88;101627.81;5034249;28;45425;-65
2021/09/02 08:14:29;;;;;;;;;34.00;31.00;;;;;22.15;43.15;101630.75;5036057;28;47060;-65
2021/09/02 08:16:54;;;;;;;;;25.33;21.33;;;;;22.02;43.54;101615.69;5054009;28;45398;-65
2021/09/02 08:19:20;;;;;;;;;32.00;27.67;;;;;21.97;43.91;101614.84;5055533;28;45461;-65
2021/09/02 08:21:47;;;;;;;;;34.67;31.00;;;;;21.86;43.88;101619.59;5054190;28;45526;-65
2021/09/02 08:24:13;;;;;;;;;18.00;18.00;;;;;21.82;44.30;101612.47;5053889;28;45543;-65
2021/09/02 08:26:38;;;;;;;;;18.67;18.33;;;;;21.93;44.48;101618.56;5053880;28;45394;-63
2021/09/02 08:29:03;;;;;;;;;20.33;18.00;;;;;22.03;44.54;101608.44;5036034;28;45657;-64
2021/09/02 08:31:30;;;;;;;;;19.33;19.33;;;;;22.14;43.83;101611.84;5054307;28;45752;-65
2021/09/02 08:33:55;;;;;;;;;17.00;17.00;;;;;22.23;44.13;101606.22;5053221;28;45481;-65
2021/09/02 08:36:22;;;;;;;;;18.00;18.00;;;;;22.37;43.78;101597.84;5035091;28;45523;-65
2021/09/02 08:38:48;;;;;;;;;20.33;17.33;;;;;22.48;43.86;101592.16;5053320;28;45426;-65
2021/09/02 08:41:17;;;;;;;;;33.33;29.67;;;;;22.59;43.74;101600.09;5054234;28;45474;-65
2021/09/02 08:43:45;;;;;;;;;27.00;25.00;;;;;22.49;43.63;101592.16;5052245;28;45535;-65
2021/09/02 08:46:11;;;;;;;;;27.67;26.33;;;;;22.48;43.87;101584.97;5054135;28;45555;-65
2021/09/02 08:48:40;;;;;;;;;21.33;21.33;;;;;22.50;43.87;101588.53;5056400;28;45473;-66
2021/09/02 08:51:08;;;;;;;;;19.67;17.67;;;;;22.56;43.61;101582.97;5040305;28;45506;-65
2021/09/02 08:53:42;;;;;;;;;32.33;29.67;;;;;22.66;43.57;101574.59;5041101;28;45486;-65
2021/09/02 08:56:09;;;;;;;;;22.33;19.00;;;;;22.75;43.89;101583.44;5039774;28;45489;-65
2021/09/02 08:58:34;;;;;;;;;32.33;27.33;;;;;22.78;43.23;101566.19;5058125;28;45532;-65
2021/09/02 09:01:00;;;;;;;;;24.67;24.00;;;;;22.68;43.19;101580.88;5050111;28;45453;-64
2021/09/02 09:03:26;;;;;;;;;28.00;27.00;;;;;22.54;43.99;101571.25;5038286;28;46866;-64
2021/09/02 09:05:57;;;;;;;;;26.33;26.00;;;;;22.47;43.65;101583.16;5038226;28;45808;-65
2021/09/02 09:08:38;;;;;;;;;31.67;27.33;;;;;22.34;44.04;101581.66;5047087;28;45444;-65
2021/09/02 09:11:32;;;;;;;;;30.67;29.00;;;;;22.22;44.50;101571.00;5035464;28;45436;-64
2021/09/02 09:14:15;;;;;;;;;34.33;29.67;;;;;22.05;44.21;101574.97;5023314;28;45597;-64
2021/09/02 09:16:51;;;;;;;;;20.33;20.33;;;;;21.94;44.82;101575.19;5043897;28;45484;-64
2021/09/02 09:19:52;;;;;;;;;29.00;27.00;;;;;21.99;45.39;101580.50;5056355;28;45441;-64
2021/09/02 09:22:19;;;;;;;;;26.00;25.00;;;;;22.00;45.22;101582.31;5056392;28;45473;-63
2021/09/02 09:24:56;;;;;;;;;22.00;21.33;;;;;22.06;45.49;101571.34;5039225;28;45640;-64
2021/09/02 09:27:22;;;;;;;;;18.00;18.00;;;;;22.23;45.63;101562.88;5058266;28;45348;-73
2021/09/02 09:30:10;;;;;;;;;39.67;33.00;;;;;22.28;69.83;101560.06;5037947;28;45331;-64
2021/09/02 09:32:44;;;;;;;;;23.67;21.00;;;;;21.93;55.24;101558.97;5050522;28;45615;-65
2021/09/02 09:35:21;;;;;;;;;19.00;16.33;;;;;21.86;48.56;101550.09;5039649;28;45402;-67
2021/09/02 09:38:03;;;;;;;;;17.33;14.67;;;;;22.12;47.91;101538.72;5057467;28;45520;-65
2021/09/02 09:40:28;;;;;;;;;18.33;16.33;;;;;22.46;46.78;101546.16;5057936;28;45397;-66
2021/09/02 09:43:10;;;;;;;;;18.00;15.00;;;;;22.75;46.65;101548.16;5055344;28;44839;-66
2021/09/02 09:45:39;;;;;;;;;19.00;15.67;;;;;23.02;45.44;101548.47;5054572;28;48174;-65
2021/09/02 09:48:14;;;;;;;;;15.67;13.33;;;;;23.24;45.54;101548.81;5059492;28;45814;-64
2021/09/02 09:50:40;;;;;;;;;13.33;13.33;;;;;23.44;44.65;101539.25;5038463;28;45420;-65
2021/09/02 09:53:27;;;;;;;;;17.33;13.33;;;;;23.63;44.30;101526.97;5056132;28;45436;-63
2021/09/02 09:55:53;;;;;;;;;14.67;13.00;;;;;23.78;44.02;101536.53;5055875;28;45379;-64
2021/09/02 09:58:25;;;;;;;;;16.33;14.67;;;;;23.92;43.84;101537.03;5056282;28;45498;-65
2021/09/02 10:00:56;;;;;;;;;10.67;10.67;;;;;24.06;43.46;101541.19;5054279;28;45512;-66
2021/09/02 10:03:22;;;;;;;;;13.67;11.00;;;;;24.20;43.40;101535.31;5056126;28;45429;-64
2021/09/02 10:05:53;;;;;;;;;24.67;23.33;;;;;24.30;43.61;101539.56;5054648;28;45401;-67
2021/09/02 10:08:20;;;;;;;;;18.00;18.00;;;;;24.41;43.16;101531.06;5057734;28;45499;-64
2021/09/02 10:10:48;;;;;;;;;14.67;14.33;;;;;24.50;43.04;101522.63;5057223;28;45757;-66
2021/09/02 10:13:16;;;;;;;;;11.67;10.33;;;;;24.60;42.25;101523.25;5037565;28;45514;-64
2021/09/02 10:15:42;;;;;;;;;10.67;10.00;;;;;24.69;42.71;101520.25;5036593;28;46057;-64
2021/09/02 10:18:08;;;;;;;;;13.33;11.33;;;;;24.77;42.23;101520.00;5055239;28;45567;-64
2021/09/02 10:20:37;;;;;;;;;9.00;9.00;;;;;24.84;42.15;101517.00;5055492;28;44860;-65
2021/09/02 10:23:05;;;;;;;;;14.00;11.00;;;;;24.93;42.07;101518.53;5055889;28;45428;-64
2021/09/02 10:25:33;;;;;;;;;9.00;8.00;;;;;25.00;41.98;101513.78;5055256;28;45729;-65
2021/09/02 10:28:00;;;;;;;;;5.33;5.33;;;;;25.06;41.66;101510.84;5055724;28;45462;-65
2021/09/02 10:30:26;;;;;;;;;11.00;11.00;;;;;25.13;41.78;101517.88;5055785;28;45497;-64
2021/09/02 10:33:42;;;;;;;;;9.33;9.33;;;;;25.20;41.85;101513.97;5057037;28;45410;-68
2021/09/02 10:36:10;;;;;;;;;10.67;9.33;;;;;25.26;41.54;101511.06;5055537;28;46079;-65
2021/09/02 10:38:54;;;;;;;;;11.67;11.00;;;;;25.29;41.57;101497.38;5055524;28;45387;-65
2021/09/02 10:41:35;;;;;;;;;9.00;7.33;;;;;25.37;41.22;101493.47;5055313;28;45820;-65
2021/09/02 10:44:01;;;;;;;;;13.67;13.00;;;;;25.42;41.32;101496.94;5033456;28;45511;-65
2021/09/02 10:46:36;;;;;;;;;13.00;11.67;;;;;25.45;41.44;101502.25;5034995;28;45439;-64
2021/09/02 10:49:19;;;;;;;;;7.67;7.67;;;;;25.52;41.12;101510.16;5034899;28;45353;-64
2021/09/02 10:51:56;;;;;;;;;9.33;9.33;;;;;25.57;41.08;101501.81;5024085;28;45479;-64
2021/09/02 10:54:32;;;;;;;;;8.00;8.00;;;;;25.62;40.86;101510.72;5035247;28;45546;-65
2021/09/02 10:57:08;;;;;;;;;11.00;11.00;;;;;25.66;40.88;101504.19;5034614;28;46185;-64
2021/09/02 10:59:40;;;;;;;;;7.67;7.00;;;;;25.68;41.01;101483.25;5034876;28;45789;-64
2021/09/02 11:02:08;;;;;;;;;10.00;8.67;;;;;25.74;40.85;101493.91;5033833;28;45331;-64
2021/09/02 11:04:38;;;;;;;;;17.00;16.67;;;;;25.79;40.62;101490.13;5035709;28;45450;-65
2021/09/02 11:07:05;;;;;;;;;12.67;11.00;;;;;25.83;40.37;101497.22;5033400;28;47400;-66
2021/09/02 11:09:33;;;;;;;;;12.67;11.67;;;;;25.86;40.65;101498.00;5036868;28;45405;-66
2021/09/02 11:12:00;;;;;;;;;10.67;9.00;;;;;25.89;40.55;101497.00;5038868;28;45522;-65
2021/09/02 11:14:26;;;;;;;;;10.33;10.33;;;;;25.91;41.31;101496.03;5038651;28;45549;-65
2021/09/02 11:16:52;;;;;;;;;23.33;22.00;;;;;25.96;41.39;101495.00;5036391;28;46829;-64
2021/09/02 11:19:38;;;;;;;;;13.67;12.33;;;;;26.00;40.98;101500.25;5036734;28;45502;-64
2021/09/02 11:22:09;;;;;;;;;15.00;12.67;;;;;25.99;40.41;101501.19;5035990;28;45456;-69
2021/09/02 11:24:42;;;;;;;;;21.00;19.00;;;;;25.95;40.54;101502.25;5035989;28;45385;-63